sensor_id;sensor_type;location;lat;lon;timestamp;temperature;humidity
52495;DHT22;38405;53.212;5.660;2022-12-08T00:01:08;2.60;99.90
52495;DHT22;38405;53.212;5.660;2022-12-08T00:03:34;2.50;99.90
52495;DHT22;38405;53.212;5.660;2022-12-08T00:06:01;2.50;99.90
52495;DHT22;38405;53.212;5.660;2022-12-08T00:08:46;2.30;99.90
52495;DHT22;38405;53.212;5.660;2022-12-08T00:11:31;2.30;99.90
52495;DHT22;38405;53.212;5.660;2022-12-08T00:13:56;2.30;99.90
52495;DHT22;38405;53.212;5.660;2022-12-08T00:16:22;2.30;99.90
52495;DHT22;38405;53.212;5.660;2022-12-08T00:18:48;2.30;99.90
52495;DHT22;38405;53.212;5.660;2022-12-08T00:21:13;2.30;99.90
52495;DHT22;38405;53.212;5.660;2022-12-08T00:23:39;2.40;99.90
52495;DHT22;38405;53.212;5.660;2022-12-08T00:26:05;2.50;99.90
52495;DHT22;38405;53.212;5.660;2022-12-08T00:28:32;2.60;99.90
52495;DHT22;38405;53.212;5.660;2022-12-08T00:30:58;2.70;99.90
52495;DHT22;38405;53.212;5.660;2022-12-08T00:33:23;2.70;99.90
52495;DHT22;38405;53.212;5.660;2022-12-08T00:35:49;2.70;99.90
52495;DHT22;38405;53.212;5.660;2022-12-08T00:38:15;2.70;99.90
52495;DHT22;38405;53.212;5.660;2022-12-08T00:40:45;2.70;99.90
52495;DHT22;38405;53.212;5.660;2022-12-08T00:43:11;2.70;99.90
52495;DHT22;38405;53.212;5.660;2022-12-08T00:45:36;2.70;99.90
52495;DHT22;38405;53.212;5.660;2022-12-08T00:48:02;2.70;99.90
52495;DHT22;38405;53.212;5.660;2022-12-08T00:50:28;2.70;99.90
52495;DHT22;38405;53.212;5.660;2022-12-08T00:52:53;2.80;99.90
52495;DHT22;38405;53.212;5.660;2022-12-08T00:55:19;2.90;99.90
52495;DHT22;38405;53.212;5.660;2022-12-08T00:57:45;2.90;99.90
52495;DHT22;38405;53.212;5.660;2022-12-08T01:00:11;3.00;99.90
52495;DHT22;38405;53.212;5.660;2022-12-08T01:02:36;2.80;99.90
52495;DHT22;38405;53.212;5.660;2022-12-08T01:05:02;2.80;99.90
52495;DHT22;38405;53.212;5.660;2022-12-08T01:07:28;2.70;99.90
52495;DHT22;38405;53.212;5.660;2022-12-08T01:09:53;2.60;99.90
52495;DHT22;38405;53.212;5.660;2022-12-08T01:12:19;2.50;99.90
52495;DHT22;38405;53.212;5.660;2022-12-08T01:14:44;2.50;99.90
52495;DHT22;38405;53.212;5.660;2022-12-08T01:17:10;2.40;99.90
52495;DHT22;38405;53.212;5.660;2022-12-08T01:19:36;2.40;99.90
52495;DHT22;38405;53.212;5.660;2022-12-08T01:22:02;2.30;99.90
52495;DHT22;38405;53.212;5.660;2022-12-08T01:24:27;2.30;99.90
52495;DHT22;38405;53.212;5.660;2022-12-08T01:26:53;2.40;99.90
52495;DHT22;38405;53.212;5.660;2022-12-08T01:29:19;2.40;99.90
52495;DHT22;38405;53.212;5.660;2022-12-08T01:31:48;2.40;99.90
52495;DHT22;38405;53.212;5.660;2022-12-08T01:34:13;2.40;99.90
52495;DHT22;38405;53.212;5.660;2022-12-08T01:36:39;2.50;99.90
52495;DHT22;38405;53.212;5.660;2022-12-08T01:39:07;2.50;99.90
52495;DHT22;38405;53.212;5.660;2022-12-08T01:41:36;2.50;99.90
52495;DHT22;38405;53.212;5.660;2022-12-08T01:46:48;2.80;99.90
52495;DHT22;38405;53.212;5.660;2022-12-08T01:49:17;2.90;99.90
52495;DHT22;38405;53.212;5.660;2022-12-08T01:54:48;2.80;99.90
52495;DHT22;38405;53.212;5.660;2022-12-08T01:57:30;2.80;99.90
52495;DHT22;38405;53.212;5.660;2022-12-08T02:00:09;2.80;99.90
52495;DHT22;38405;53.212;5.660;2022-12-08T02:02:56;2.80;99.90
52495;DHT22;38405;53.212;5.660;2022-12-08T02:05:28;2.70;99.90
52495;DHT22;38405;53.212;5.660;2022-12-08T02:07:56;2.70;99.90
52495;DHT22;38405;53.212;5.660;2022-12-08T02:10:24;2.70;99.90
52495;DHT22;38405;53.212;5.660;2022-12-08T02:12:53;3.10;99.90
52495;DHT22;38405;53.212;5.660;2022-12-08T02:15:32;2.70;99.90
52495;DHT22;38405;53.212;5.660;2022-12-08T02:21:53;2.90;99.90
52495;DHT22;38405;53.212;5.660;2022-12-08T02:24:09;2.90;99.90
52495;DHT22;38405;53.212;5.660;2022-12-08T02:27:06;2.80;99.90
52495;DHT22;38405;53.212;5.660;2022-12-08T02:32:55;2.80;99.90
52495;DHT22;38405;53.212;5.660;2022-12-08T02:43:50;2.70;99.90
52495;DHT22;38405;53.212;5.660;2022-12-08T02:46:31;2.60;99.90
52495;DHT22;38405;53.212;5.660;2022-12-08T02:48:59;2.70;99.90
52495;DHT22;38405;53.212;5.660;2022-12-08T02:51:25;2.60;99.90
52495;DHT22;38405;53.212;5.660;2022-12-08T02:53:51;2.60;99.90
52495;DHT22;38405;53.212;5.660;2022-12-08T02:59:32;2.60;99.90
52495;DHT22;38405;53.212;5.660;2022-12-08T03:05:32;2.50;99.90
52495;DHT22;38405;53.212;5.660;2022-12-08T03:08:15;2.40;99.90
52495;DHT22;38405;53.212;5.660;2022-12-08T03:10:59;2.30;99.90
52495;DHT22;38405;53.212;5.660;2022-12-08T03:13:33;2.30;99.90
52495;DHT22;38405;53.212;5.660;2022-12-08T03:16:06;2.20;99.90
52495;DHT22;38405;53.212;5.660;2022-12-08T03:18:37;2.20;99.90
52495;DHT22;38405;53.212;5.660;2022-12-08T03:21:05;2.20;99.90
52495;DHT22;38405;53.212;5.660;2022-12-08T03:23:31;2.20;99.90
52495;DHT22;38405;53.212;5.660;2022-12-08T03:26:09;2.20;99.90
52495;DHT22;38405;53.212;5.660;2022-12-08T03:28:36;2.20;99.90
52495;DHT22;38405;53.212;5.660;2022-12-08T03:31:06;2.20;99.90
52495;DHT22;38405;53.212;5.660;2022-12-08T03:33:36;2.20;99.90
52495;DHT22;38405;53.212;5.660;2022-12-08T03:36:04;2.20;99.90
52495;DHT22;38405;53.212;5.660;2022-12-08T03:38:41;2.20;99.90
52495;DHT22;38405;53.212;5.660;2022-12-08T03:41:07;2.20;99.90
52495;DHT22;38405;53.212;5.660;2022-12-08T03:43:53;2.20;99.90
52495;DHT22;38405;53.212;5.660;2022-12-08T03:46:21;2.20;99.90
52495;DHT22;38405;53.212;5.660;2022-12-08T03:48:47;2.20;99.90
52495;DHT22;38405;53.212;5.660;2022-12-08T03:51:14;2.20;99.90
52495;DHT22;38405;53.212;5.660;2022-12-08T03:53:39;2.20;99.90
52495;DHT22;38405;53.212;5.660;2022-12-08T03:58:39;2.20;99.90
52495;DHT22;38405;53.212;5.660;2022-12-08T04:01:05;2.20;99.90
52495;DHT22;38405;53.212;5.660;2022-12-08T04:03:30;2.30;99.90
52495;DHT22;38405;53.212;5.660;2022-12-08T04:05:56;2.30;99.90
52495;DHT22;38405;53.212;5.660;2022-12-08T04:08:22;2.30;99.90
52495;DHT22;38405;53.212;5.660;2022-12-08T04:10:47;2.30;99.90
52495;DHT22;38405;53.212;5.660;2022-12-08T04:13:13;2.30;99.90
52495;DHT22;38405;53.212;5.660;2022-12-08T04:15:38;2.30;99.90
52495;DHT22;38405;53.212;5.660;2022-12-08T04:18:04;2.30;99.90
52495;DHT22;38405;53.212;5.660;2022-12-08T04:20:30;2.40;99.90
52495;DHT22;38405;53.212;5.660;2022-12-08T04:22:55;2.40;99.90
52495;DHT22;38405;53.212;5.660;2022-12-08T04:25:21;2.40;99.90
52495;DHT22;38405;53.212;5.660;2022-12-08T04:27:46;2.40;99.90
52495;DHT22;38405;53.212;5.660;2022-12-08T04:30:12;2.40;99.90
52495;DHT22;38405;53.212;5.660;2022-12-08T04:32:38;2.40;99.90
52495;DHT22;38405;53.212;5.660;2022-12-08T04:35:03;2.50;99.90
52495;DHT22;38405;53.212;5.660;2022-12-08T04:37:29;2.40;99.90
52495;DHT22;38405;53.212;5.660;2022-12-08T04:39:55;2.40;99.90
52495;DHT22;38405;53.212;5.660;2022-12-08T04:42:20;2.40;99.90
52495;DHT22;38405;53.212;5.660;2022-12-08T04:44:46;2.50;99.90
52495;DHT22;38405;53.212;5.660;2022-12-08T04:47:11;2.50;99.90
52495;DHT22;38405;53.212;5.660;2022-12-08T04:49:37;2.50;99.90
52495;DHT22;38405;53.212;5.660;2022-12-08T04:52:03;2.50;99.90
52495;DHT22;38405;53.212;5.660;2022-12-08T04:54:28;2.50;99.90
52495;DHT22;38405;53.212;5.660;2022-12-08T04:56:54;2.50;99.90
52495;DHT22;38405;53.212;5.660;2022-12-08T04:59:19;2.50;99.90
52495;DHT22;38405;53.212;5.660;2022-12-08T05:01:45;2.50;99.90
52495;DHT22;38405;53.212;5.660;2022-12-08T05:04:11;2.60;99.90
52495;DHT22;38405;53.212;5.660;2022-12-08T05:06:36;2.50;99.90
52495;DHT22;38405;53.212;5.660;2022-12-08T05:09:02;2.60;99.90
52495;DHT22;38405;53.212;5.660;2022-12-08T05:11:28;2.80;99.90
52495;DHT22;38405;53.212;5.660;2022-12-08T05:13:53;2.60;99.90
52495;DHT22;38405;53.212;5.660;2022-12-08T05:16:19;2.60;99.90
52495;DHT22;38405;53.212;5.660;2022-12-08T05:18:44;2.60;99.90
52495;DHT22;38405;53.212;5.660;2022-12-08T05:21:10;2.60;99.90
52495;DHT22;38405;53.212;5.660;2022-12-08T05:23:36;2.60;99.90
52495;DHT22;38405;53.212;5.660;2022-12-08T05:26:02;2.70;99.90
52495;DHT22;38405;53.212;5.660;2022-12-08T05:28:27;2.70;99.90
52495;DHT22;38405;53.212;5.660;2022-12-08T05:30:53;2.70;99.90
52495;DHT22;38405;53.212;5.660;2022-12-08T05:33:19;2.70;99.90
52495;DHT22;38405;53.212;5.660;2022-12-08T05:35:44;2.70;99.90
52495;DHT22;38405;53.212;5.660;2022-12-08T05:38:10;2.70;99.90
52495;DHT22;38405;53.212;5.660;2022-12-08T05:40:38;2.70;99.90
52495;DHT22;38405;53.212;5.660;2022-12-08T05:43:03;2.80;99.90
52495;DHT22;38405;53.212;5.660;2022-12-08T05:45:29;2.80;99.90
52495;DHT22;38405;53.212;5.660;2022-12-08T05:47:55;2.70;99.90
52495;DHT22;38405;53.212;5.660;2022-12-08T05:50:20;2.70;99.90
52495;DHT22;38405;53.212;5.660;2022-12-08T05:52:46;2.70;99.90
52495;DHT22;38405;53.212;5.660;2022-12-08T05:55:12;2.60;99.90
52495;DHT22;38405;53.212;5.660;2022-12-08T05:57:37;2.60;99.90
52495;DHT22;38405;53.212;5.660;2022-12-08T06:00:04;2.50;99.90
52495;DHT22;38405;53.212;5.660;2022-12-08T06:02:29;2.40;99.90
52495;DHT22;38405;53.212;5.660;2022-12-08T06:04:55;2.40;99.90
52495;DHT22;38405;53.212;5.660;2022-12-08T06:07:20;2.30;99.90
52495;DHT22;38405;53.212;5.660;2022-12-08T06:09:46;2.30;99.90
52495;DHT22;38405;53.212;5.660;2022-12-08T06:12:12;3.00;99.90
52495;DHT22;38405;53.212;5.660;2022-12-08T06:14:41;2.10;99.90
52495;DHT22;38405;53.212;5.660;2022-12-08T06:17:06;2.10;99.90
52495;DHT22;38405;53.212;5.660;2022-12-08T06:19:32;2.00;99.90
52495;DHT22;38405;53.212;5.660;2022-12-08T06:21:58;1.90;99.90
52495;DHT22;38405;53.212;5.660;2022-12-08T06:24:23;1.90;99.90
52495;DHT22;38405;53.212;5.660;2022-12-08T06:26:49;1.70;99.90
52495;DHT22;38405;53.212;5.660;2022-12-08T06:29:14;1.70;99.90
52495;DHT22;38405;53.212;5.660;2022-12-08T06:31:40;1.60;99.90
52495;DHT22;38405;53.212;5.660;2022-12-08T06:34:06;1.50;99.90
52495;DHT22;38405;53.212;5.660;2022-12-08T06:36:32;1.50;99.90
52495;DHT22;38405;53.212;5.660;2022-12-08T06:38:59;1.40;99.90
52495;DHT22;38405;53.212;5.660;2022-12-08T06:41:24;1.30;99.90
52495;DHT22;38405;53.212;5.660;2022-12-08T06:43:50;1.20;99.90
52495;DHT22;38405;53.212;5.660;2022-12-08T06:46:18;1.10;99.90
52495;DHT22;38405;53.212;5.660;2022-12-08T06:48:44;1.10;99.90
52495;DHT22;38405;53.212;5.660;2022-12-08T06:51:15;1.00;99.90
52495;DHT22;38405;53.212;5.660;2022-12-08T06:53:42;1.40;99.90
52495;DHT22;38405;53.212;5.660;2022-12-08T06:56:08;0.80;99.90
52495;DHT22;38405;53.212;5.660;2022-12-08T06:58:34;0.70;99.90
52495;DHT22;38405;53.212;5.660;2022-12-08T07:01:08;0.60;99.90
52495;DHT22;38405;53.212;5.660;2022-12-08T07:03:34;0.50;99.90
52495;DHT22;38405;53.212;5.660;2022-12-08T07:06:00;0.40;99.90
52495;DHT22;38405;53.212;5.660;2022-12-08T07:08:26;0.40;99.90
52495;DHT22;38405;53.212;5.660;2022-12-08T07:10:52;0.30;99.90
52495;DHT22;38405;53.212;5.660;2022-12-08T07:13:17;0.30;99.90
52495;DHT22;38405;53.212;5.660;2022-12-08T07:15:43;0.20;99.90
52495;DHT22;38405;53.212;5.660;2022-12-08T07:18:09;0.10;99.90
52495;DHT22;38405;53.212;5.660;2022-12-08T07:20:34;0.10;99.90
52495;DHT22;38405;53.212;5.660;2022-12-08T07:23:00;0.00;99.90
52495;DHT22;38405;53.212;5.660;2022-12-08T07:25:25;0.00;99.90
52495;DHT22;38405;53.212;5.660;2022-12-08T07:27:51;0.00;99.90
52495;DHT22;38405;53.212;5.660;2022-12-08T07:30:18;-0.10;99.90
52495;DHT22;38405;53.212;5.660;2022-12-08T07:32:43;0.50;99.90
52495;DHT22;38405;53.212;5.660;2022-12-08T07:35:12;-0.10;99.90
52495;DHT22;38405;53.212;5.660;2022-12-08T07:37:38;-0.10;99.90
52495;DHT22;38405;53.212;5.660;2022-12-08T07:40:07;-0.10;99.90
52495;DHT22;38405;53.212;5.660;2022-12-08T07:42:33;-0.10;99.90
52495;DHT22;38405;53.212;5.660;2022-12-08T07:44:59;-0.10;99.90
52495;DHT22;38405;53.212;5.660;2022-12-08T07:47:28;0.00;99.90
52495;DHT22;38405;53.212;5.660;2022-12-08T07:49:53;0.00;99.90
52495;DHT22;38405;53.212;5.660;2022-12-08T07:52:19;0.00;99.90
52495;DHT22;38405;53.212;5.660;2022-12-08T07:54:45;0.10;99.90
52495;DHT22;38405;53.212;5.660;2022-12-08T07:57:11;0.10;99.90
52495;DHT22;38405;53.212;5.660;2022-12-08T07:59:37;0.20;99.90
52495;DHT22;38405;53.212;5.660;2022-12-08T08:02:02;0.20;99.90
52495;DHT22;38405;53.212;5.660;2022-12-08T08:04:28;0.20;99.90
52495;DHT22;38405;53.212;5.660;2022-12-08T08:06:54;0.30;99.90
52495;DHT22;38405;53.212;5.660;2022-12-08T08:09:19;0.30;99.90
52495;DHT22;38405;53.212;5.660;2022-12-08T08:11:45;0.30;99.90
52495;DHT22;38405;53.212;5.660;2022-12-08T08:14:11;0.30;99.90
52495;DHT22;38405;53.212;5.660;2022-12-08T08:16:37;0.30;99.90
52495;DHT22;38405;53.212;5.660;2022-12-08T08:19:02;0.30;99.90
52495;DHT22;38405;53.212;5.660;2022-12-08T08:21:28;0.40;99.90
52495;DHT22;38405;53.212;5.660;2022-12-08T08:23:54;0.50;99.90
52495;DHT22;38405;53.212;5.660;2022-12-08T08:26:19;0.60;99.90
52495;DHT22;38405;53.212;5.660;2022-12-08T08:28:45;0.70;99.90
52495;DHT22;38405;53.212;5.660;2022-12-08T08:31:11;0.70;99.90
52495;DHT22;38405;53.212;5.660;2022-12-08T08:33:37;0.80;99.90
52495;DHT22;38405;53.212;5.660;2022-12-08T08:36:08;0.80;99.90
52495;DHT22;38405;53.212;5.660;2022-12-08T08:38:35;0.80;99.90
52495;DHT22;38405;53.212;5.660;2022-12-08T08:41:08;0.80;99.90
52495;DHT22;38405;53.212;5.660;2022-12-08T08:43:34;0.80;99.90
52495;DHT22;38405;53.212;5.660;2022-12-08T08:46:01;0.70;99.90
52495;DHT22;38405;53.212;5.660;2022-12-08T08:48:28;0.70;99.90
52495;DHT22;38405;53.212;5.660;2022-12-08T08:50:55;0.70;99.90
52495;DHT22;38405;53.212;5.660;2022-12-08T08:53:22;0.60;99.90
52495;DHT22;38405;53.212;5.660;2022-12-08T08:55:49;0.60;99.90
52495;DHT22;38405;53.212;5.660;2022-12-08T08:58:15;0.60;99.90
52495;DHT22;38405;53.212;5.660;2022-12-08T09:00:41;0.60;99.90
52495;DHT22;38405;53.212;5.660;2022-12-08T09:03:06;0.90;99.90
52495;DHT22;38405;53.212;5.660;2022-12-08T09:05:32;1.20;99.90
52495;DHT22;38405;53.212;5.660;2022-12-08T09:07:58;1.50;99.90
52495;DHT22;38405;53.212;5.660;2022-12-08T09:10:23;1.90;99.90
52495;DHT22;38405;53.212;5.660;2022-12-08T09:12:49;2.20;99.90
52495;DHT22;38405;53.212;5.660;2022-12-08T09:15:14;2.60;99.90
52495;DHT22;38405;53.212;5.660;2022-12-08T09:17:40;2.90;99.90
52495;DHT22;38405;53.212;5.660;2022-12-08T09:20:06;3.20;99.90
52495;DHT22;38405;53.212;5.660;2022-12-08T09:22:32;3.40;99.90
52495;DHT22;38405;53.212;5.660;2022-12-08T09:24:57;3.40;99.90
52495;DHT22;38405;53.212;5.660;2022-12-08T09:27:23;3.40;99.90
52495;DHT22;38405;53.212;5.660;2022-12-08T09:29:49;3.20;99.90
52495;DHT22;38405;53.212;5.660;2022-12-08T09:32:14;3.50;99.90
52495;DHT22;38405;53.212;5.660;2022-12-08T09:34:40;3.10;99.90
52495;DHT22;38405;53.212;5.660;2022-12-08T09:37:06;3.00;99.90
52495;DHT22;38405;53.212;5.660;2022-12-08T09:39:31;2.90;99.90
52495;DHT22;38405;53.212;5.660;2022-12-08T09:42:04;2.90;99.90
52495;DHT22;38405;53.212;5.660;2022-12-08T09:50:14;3.10;99.90
52495;DHT22;38405;53.212;5.660;2022-12-08T09:53:02;3.10;99.90
52495;DHT22;38405;53.212;5.660;2022-12-08T09:58:08;3.10;99.90
52495;DHT22;38405;53.212;5.660;2022-12-08T10:00:35;3.20;99.90
52495;DHT22;38405;53.212;5.660;2022-12-08T10:03:01;3.40;99.90
52495;DHT22;38405;53.212;5.660;2022-12-08T10:05:28;3.20;99.90
52495;DHT22;38405;53.212;5.660;2022-12-08T10:08:19;3.10;99.90
52495;DHT22;38405;53.212;5.660;2022-12-08T10:10:57;3.00;99.90
52495;DHT22;38405;53.212;5.660;2022-12-08T10:13:32;2.90;99.90
52495;DHT22;38405;53.212;5.660;2022-12-08T10:16:11;3.00;99.90
52495;DHT22;38405;53.212;5.660;2022-12-08T10:18:40;2.70;99.90
52495;DHT22;38405;53.212;5.660;2022-12-08T10:21:16;2.70;99.90
52495;DHT22;38405;53.212;5.660;2022-12-08T10:23:47;2.60;99.90
52495;DHT22;38405;53.212;5.660;2022-12-08T10:26:16;2.70;99.90
52495;DHT22;38405;53.212;5.660;2022-12-08T10:28:42;2.70;99.90
52495;DHT22;38405;53.212;5.660;2022-12-08T10:31:22;2.90;99.90
52495;DHT22;38405;53.212;5.660;2022-12-08T10:33:58;3.20;99.90
52495;DHT22;38405;53.212;5.660;2022-12-08T10:36:43;3.80;99.90
52495;DHT22;38405;53.212;5.660;2022-12-08T10:39:28;4.40;99.90
52495;DHT22;38405;53.212;5.660;2022-12-08T10:44:54;5.10;99.90
52495;DHT22;38405;53.212;5.660;2022-12-08T10:47:24;5.20;99.90
52495;DHT22;38405;53.212;5.660;2022-12-08T10:50:35;5.20;99.90
52495;DHT22;38405;53.212;5.660;2022-12-08T10:55:43;4.60;99.90
52495;DHT22;38405;53.212;5.660;2022-12-08T10:58:36;4.40;99.90
52495;DHT22;38405;53.212;5.660;2022-12-08T11:01:16;4.20;99.90
52495;DHT22;38405;53.212;5.660;2022-12-08T11:03:49;4.10;99.90
52495;DHT22;38405;53.212;5.660;2022-12-08T11:08:56;4.20;99.90
52495;DHT22;38405;53.212;5.660;2022-12-08T11:14:31;4.40;99.90
52495;DHT22;38405;53.212;5.660;2022-12-08T11:22:41;4.30;99.90
52495;DHT22;38405;53.212;5.660;2022-12-08T11:27:41;4.30;99.90
52495;DHT22;38405;53.212;5.660;2022-12-08T11:32:45;4.30;99.90
52495;DHT22;38405;53.212;5.660;2022-12-08T11:35:22;4.30;99.90
52495;DHT22;38405;53.212;5.660;2022-12-08T11:37:49;4.40;99.90
52495;DHT22;38405;53.212;5.660;2022-12-08T11:40:32;4.40;99.90
52495;DHT22;38405;53.212;5.660;2022-12-08T11:43:16;4.40;99.90
52495;DHT22;38405;53.212;5.660;2022-12-08T11:45:43;4.40;99.90
52495;DHT22;38405;53.212;5.660;2022-12-08T11:48:32;4.30;99.90
52495;DHT22;38405;53.212;5.660;2022-12-08T11:51:11;4.30;99.90
52495;DHT22;38405;53.212;5.660;2022-12-08T11:56:18;4.40;99.90
52495;DHT22;38405;53.212;5.660;2022-12-08T11:58:47;4.80;99.90
52495;DHT22;38405;53.212;5.660;2022-12-08T12:01:19;4.70;99.90
52495;DHT22;38405;53.212;5.660;2022-12-08T12:09:10;4.90;99.90
52495;DHT22;38405;53.212;5.660;2022-12-08T12:20:20;4.80;99.90
52495;DHT22;38405;53.212;5.660;2022-12-08T12:22:57;4.70;99.90
52495;DHT22;38405;53.212;5.660;2022-12-08T12:25:25;5.30;99.90
52495;DHT22;38405;53.212;5.660;2022-12-08T12:27:54;4.70;99.90
52495;DHT22;38405;53.212;5.660;2022-12-08T12:30:24;5.00;99.90
52495;DHT22;38405;53.212;5.660;2022-12-08T12:35:41;4.80;99.90
52495;DHT22;38405;53.212;5.660;2022-12-08T12:38:30;4.90;99.90
52495;DHT22;38405;53.212;5.660;2022-12-08T12:41:24;4.90;99.90
52495;DHT22;38405;53.212;5.660;2022-12-08T12:54:43;5.90;99.90
52495;DHT22;38405;53.212;5.660;2022-12-08T13:08:38;6.50;99.90
52495;DHT22;38405;53.212;5.660;2022-12-08T13:11:02;6.50;99.90
52495;DHT22;38405;53.212;5.660;2022-12-08T13:13:29;6.70;99.90
52495;DHT22;38405;53.212;5.660;2022-12-08T13:16:00;6.80;99.90
52495;DHT22;38405;53.212;5.660;2022-12-08T13:18:34;6.60;99.90
52495;DHT22;38405;53.212;5.660;2022-12-08T13:26:20;6.40;99.90
52495;DHT22;38405;53.212;5.660;2022-12-08T13:31:37;6.00;99.90
52495;DHT22;38405;53.212;5.660;2022-12-08T13:34:13;5.90;99.90
52495;DHT22;38405;53.212;5.660;2022-12-08T13:36:52;5.60;99.90
52495;DHT22;38405;53.212;5.660;2022-12-08T13:39:35;5.40;99.90
52495;DHT22;38405;53.212;5.660;2022-12-08T13:44:50;5.00;99.90
52495;DHT22;38405;53.212;5.660;2022-12-08T13:47:23;4.70;99.90
52495;DHT22;38405;53.212;5.660;2022-12-08T13:50:08;4.50;99.90
52495;DHT22;38405;53.212;5.660;2022-12-08T13:55:39;4.30;99.90
52495;DHT22;38405;53.212;5.660;2022-12-08T13:58:18;4.20;99.90
52495;DHT22;38405;53.212;5.660;2022-12-08T14:03:22;4.30;99.90
52495;DHT22;38405;53.212;5.660;2022-12-08T14:05:48;4.40;99.90
52495;DHT22;38405;53.212;5.660;2022-12-08T14:08:29;4.40;99.90
52495;DHT22;38405;53.212;5.660;2022-12-08T14:11:01;4.40;99.90
52495;DHT22;38405;53.212;5.660;2022-12-08T14:13:28;4.60;99.90
52495;DHT22;38405;53.212;5.660;2022-12-08T14:15:54;4.10;99.90
52495;DHT22;38405;53.212;5.660;2022-12-08T14:18:26;3.90;99.90
52495;DHT22;38405;53.212;5.660;2022-12-08T14:21:08;3.70;99.90
52495;DHT22;38405;53.212;5.660;2022-12-08T14:23:36;3.50;99.90
52495;DHT22;38405;53.212;5.660;2022-12-08T14:26:05;3.40;99.90
52495;DHT22;38405;53.212;5.660;2022-12-08T14:28:32;3.30;99.90
52495;DHT22;38405;53.212;5.660;2022-12-08T14:30:58;3.20;99.90
52495;DHT22;38405;53.212;5.660;2022-12-08T14:33:25;3.10;99.90
52495;DHT22;38405;53.212;5.660;2022-12-08T14:35:53;3.00;99.90
52495;DHT22;38405;53.212;5.660;2022-12-08T14:38:20;2.90;99.90
52495;DHT22;38405;53.212;5.660;2022-12-08T14:41:07;2.80;99.90
52495;DHT22;38405;53.212;5.660;2022-12-08T14:43:34;2.80;99.90
52495;DHT22;38405;53.212;5.660;2022-12-08T14:46:02;2.60;99.90
52495;DHT22;38405;53.212;5.660;2022-12-08T14:54:08;2.50;99.90
52495;DHT22;38405;53.212;5.660;2022-12-08T14:56:50;2.40;99.90
52495;DHT22;38405;53.212;5.660;2022-12-08T14:59:24;2.90;99.90
52495;DHT22;38405;53.212;5.660;2022-12-08T15:01:54;2.20;99.90
52495;DHT22;38405;53.212;5.660;2022-12-08T15:04:36;2.10;99.90
52495;DHT22;38405;53.212;5.660;2022-12-08T15:07:13;2.00;99.90
52495;DHT22;38405;53.212;5.660;2022-12-08T15:20:05;1.80;99.90
52495;DHT22;38405;53.212;5.660;2022-12-08T15:22:32;1.80;99.90
52495;DHT22;38405;53.212;5.660;2022-12-08T15:24:58;1.90;99.90
52495;DHT22;38405;53.212;5.660;2022-12-08T15:27:25;1.90;99.90
52495;DHT22;38405;53.212;5.660;2022-12-08T15:29:51;1.90;99.90
52495;DHT22;38405;53.212;5.660;2022-12-08T15:32:22;1.90;99.90
52495;DHT22;38405;53.212;5.660;2022-12-08T15:34:49;1.90;99.90
52495;DHT22;38405;53.212;5.660;2022-12-08T15:37:23;1.70;99.90
52495;DHT22;38405;53.212;5.660;2022-12-08T15:39:49;1.70;99.90
52495;DHT22;38405;53.212;5.660;2022-12-08T15:42:17;1.60;99.90
52495;DHT22;38405;53.212;5.660;2022-12-08T15:44:43;1.60;99.90
52495;DHT22;38405;53.212;5.660;2022-12-08T15:47:18;1.60;99.90
52495;DHT22;38405;53.212;5.660;2022-12-08T15:49:45;1.50;99.90
52495;DHT22;38405;53.212;5.660;2022-12-08T15:52:13;1.40;99.90
52495;DHT22;38405;53.212;5.660;2022-12-08T15:54:39;1.30;99.90
52495;DHT22;38405;53.212;5.660;2022-12-08T15:57:05;1.20;99.90
52495;DHT22;38405;53.212;5.660;2022-12-08T15:59:31;1.20;99.90
52495;DHT22;38405;53.212;5.660;2022-12-08T16:01:57;2.10;99.90
52495;DHT22;38405;53.212;5.660;2022-12-08T17:46:07;0.60;99.90
52495;DHT22;38405;53.212;5.660;2022-12-08T17:48:33;1.00;99.90
52495;DHT22;38405;53.212;5.660;2022-12-08T17:51:00;0.00;99.90
52495;DHT22;38405;53.212;5.660;2022-12-08T17:53:26;0.00;99.90
52495;DHT22;38405;53.212;5.660;2022-12-08T17:55:53;0.40;99.90
52495;DHT22;38405;53.212;5.660;2022-12-08T17:58:20;-0.10;99.90
52495;DHT22;38405;53.212;5.660;2022-12-08T18:00:46;-0.20;99.90
52495;DHT22;38405;53.212;5.660;2022-12-08T18:03:12;-0.30;99.90
52495;DHT22;38405;53.212;5.660;2022-12-08T18:05:37;-0.30;99.90
52495;DHT22;38405;53.212;5.660;2022-12-08T18:08:03;0.10;99.90
52495;DHT22;38405;53.212;5.660;2022-12-08T18:10:29;-0.10;99.90
52495;DHT22;38405;53.212;5.660;2022-12-08T18:12:54;-0.10;99.90
52495;DHT22;38405;53.212;5.660;2022-12-08T18:15:23;0.00;99.90
52495;DHT22;38405;53.212;5.660;2022-12-08T18:17:49;-0.20;99.90
52495;DHT22;38405;53.212;5.660;2022-12-08T18:20:15;-0.30;99.90
52495;DHT22;38405;53.212;5.660;2022-12-08T18:22:44;-0.30;99.90
52495;DHT22;38405;53.212;5.660;2022-12-08T18:25:11;-0.30;99.90
52495;DHT22;38405;53.212;5.660;2022-12-08T18:27:38;-0.40;99.90
52495;DHT22;38405;53.212;5.660;2022-12-08T18:30:12;-0.40;99.90
52495;DHT22;38405;53.212;5.660;2022-12-08T18:32:38;-0.50;99.90
52495;DHT22;38405;53.212;5.660;2022-12-08T18:35:04;-0.50;99.90
52495;DHT22;38405;53.212;5.660;2022-12-08T18:37:32;-0.40;99.90
52495;DHT22;38405;53.212;5.660;2022-12-08T18:39:58;-0.20;99.90
52495;DHT22;38405;53.212;5.660;2022-12-08T18:42:23;-0.10;99.90
52495;DHT22;38405;53.212;5.660;2022-12-08T18:44:54;0.20;99.90
52495;DHT22;38405;53.212;5.660;2022-12-08T18:47:21;-0.10;99.90
52495;DHT22;38405;53.212;5.660;2022-12-08T18:49:47;-0.10;99.90
52495;DHT22;38405;53.212;5.660;2022-12-08T18:52:12;-0.10;99.90
52495;DHT22;38405;53.212;5.660;2022-12-08T18:54:38;-0.20;99.90
52495;DHT22;38405;53.212;5.660;2022-12-08T18:57:04;-0.20;99.90
52495;DHT22;38405;53.212;5.660;2022-12-08T18:59:30;-0.20;99.90
52495;DHT22;38405;53.212;5.660;2022-12-08T19:01:56;-0.30;99.90
52495;DHT22;38405;53.212;5.660;2022-12-08T19:04:22;-0.40;99.90
52495;DHT22;38405;53.212;5.660;2022-12-08T19:06:48;-0.50;99.90
52495;DHT22;38405;53.212;5.660;2022-12-08T19:09:14;-0.60;99.90
52495;DHT22;38405;53.212;5.660;2022-12-08T19:11:40;-0.70;99.90
52495;DHT22;38405;53.212;5.660;2022-12-08T19:14:07;-0.80;99.90
52495;DHT22;38405;53.212;5.660;2022-12-08T19:16:33;-0.90;99.90
52495;DHT22;38405;53.212;5.660;2022-12-08T19:18:59;-1.00;99.90
52495;DHT22;38405;53.212;5.660;2022-12-08T19:21:25;-1.10;99.90
52495;DHT22;38405;53.212;5.660;2022-12-08T19:23:51;-1.20;99.90
52495;DHT22;38405;53.212;5.660;2022-12-08T19:26:18;-1.20;99.90
52495;DHT22;38405;53.212;5.660;2022-12-08T19:28:44;-1.30;99.90
52495;DHT22;38405;53.212;5.660;2022-12-08T19:31:10;-1.30;99.90
52495;DHT22;38405;53.212;5.660;2022-12-08T19:33:39;-1.40;99.90
52495;DHT22;38405;53.212;5.660;2022-12-08T19:36:06;-1.30;99.90
52495;DHT22;38405;53.212;5.660;2022-12-08T19:38:32;-1.30;99.90
52495;DHT22;38405;53.212;5.660;2022-12-08T19:41:22;-1.30;99.90
52495;DHT22;38405;53.212;5.660;2022-12-08T19:44:16;-1.20;99.90
52495;DHT22;38405;53.212;5.660;2022-12-08T19:47:01;-1.10;99.90
52495;DHT22;38405;53.212;5.660;2022-12-08T19:49:26;-1.20;99.90
52495;DHT22;38405;53.212;5.660;2022-12-08T19:51:52;-1.30;99.90